ZTH weather

Zakynthos International Airport "Dionysios Solomos"
Zakynthos Island, Zakynthos, Greece

Public forecast

Using degrees Celsius for public forecast. Weather courtesy of forecast.io.

METAR (pilot weather report)

Retrieved 2019/05/20 15:50 UTC (1 hour ago):

LGZA 201550Z 14004KT 9999 SCT070 21/14 Q1014

TAF (pilot weather forecast)

Forecast is more than 12 hours old.

Retrieved 2011/11/25 15:06 UTC (7 years ago):

TAF TAF LGZA 251400Z 2515/2603 02012KT 9999 FEW025 SCT035 BKN080 PROB30 TEMPO 2518/2603 8000 RA PROB30 2522/2603 5000 BR SCT010